createdAt,value
2022-11-21T00:00:07.551Z,14.50
2022-11-21T00:01:07.894Z,14.10
2022-11-21T00:02:08.376Z,14.00
2022-11-21T00:03:08.562Z,13.30
2022-11-21T00:04:08.906Z,13.80
2022-11-21T00:05:09.217Z,14.00
2022-11-21T00:06:09.542Z,13.70
2022-11-21T00:07:09.961Z,13.10
2022-11-21T00:08:10.195Z,13.50
2022-11-21T00:09:10.608Z,13.90
2022-11-21T00:10:10.834Z,13.40
2022-11-21T00:11:11.150Z,13.50
2022-11-21T00:12:11.494Z,13.80
2022-11-21T00:13:11.804Z,13.80
2022-11-21T00:14:12.171Z,13.90
2022-11-21T00:15:12.472Z,13.80
2022-11-21T00:16:12.767Z,13.90
2022-11-21T00:17:13.089Z,13.50
2022-11-21T00:18:13.396Z,13.30
2022-11-21T00:19:13.724Z,14.10
2022-11-21T00:20:14.087Z,14.10
2022-11-21T00:21:14.372Z,14.10
2022-11-21T00:22:14.690Z,13.70
2022-11-21T00:23:15.021Z,14.00
2022-11-21T00:24:15.363Z,13.50
2022-11-21T00:25:15.731Z,14.10
2022-11-21T00:26:16.015Z,14.20
2022-11-21T00:27:16.362Z,14.40
2022-11-21T00:28:16.620Z,13.40
2022-11-21T00:29:16.914Z,13.40
2022-11-21T00:30:17.209Z,14.30
2022-11-21T00:31:17.533Z,13.80
2022-11-21T00:32:17.866Z,14.00
2022-11-21T00:33:18.169Z,13.80
2022-11-21T00:34:18.515Z,13.50
2022-11-21T00:35:18.806Z,13.80
2022-11-21T00:36:19.150Z,14.00
2022-11-21T00:37:19.500Z,14.10
2022-11-21T00:38:19.802Z,13.50
2022-11-21T00:39:20.126Z,13.90
2022-11-21T00:40:20.451Z,14.00
2022-11-21T00:41:20.859Z,13.90
2022-11-21T00:42:21.095Z,13.80
2022-11-21T00:43:21.416Z,13.40
2022-11-21T00:44:21.717Z,14.40
2022-11-21T00:45:24.501Z,13.70
2022-11-21T00:46:22.392Z,14.10
2022-11-21T00:47:22.685Z,13.90
2022-11-21T00:48:23.016Z,14.30
2022-11-21T00:49:23.385Z,13.00
2022-11-21T00:50:23.670Z,13.70
2022-11-21T00:51:23.991Z,13.70
2022-11-21T00:52:24.308Z,14.40
2022-11-21T00:53:24.623Z,14.50
2022-11-21T00:54:25.332Z,14.20
2022-11-21T00:55:25.270Z,15.50
2022-11-21T00:56:25.594Z,15.70
2022-11-21T00:57:25.952Z,15.30
2022-11-21T00:58:26.240Z,15.30
2022-11-21T00:59:26.584Z,15.20
2022-11-21T01:00:26.989Z,15.90
2022-11-21T01:01:27.300Z,14.50
2022-11-21T01:02:27.659Z,15.10
2022-11-21T01:03:27.898Z,15.10
2022-11-21T01:04:28.475Z,14.30
2022-11-21T01:05:28.533Z,15.10
2022-11-21T01:06:28.844Z,14.80
2022-11-21T01:07:29.257Z,14.50
2022-11-21T01:08:29.501Z,14.80
2022-11-21T01:09:29.786Z,15.10
2022-11-21T01:10:30.086Z,14.40
2022-11-21T01:11:30.401Z,14.70
2022-11-21T01:12:30.750Z,15.10
2022-11-21T01:13:31.082Z,14.40
2022-11-21T01:14:31.388Z,15.00
2022-11-21T01:15:31.672Z,14.40
2022-11-21T01:16:31.985Z,14.00
2022-11-21T01:17:32.328Z,14.90
2022-11-21T01:18:32.690Z,15.00
2022-11-21T01:19:32.923Z,14.70
2022-11-21T01:20:33.229Z,14.50
2022-11-21T01:21:33.564Z,15.60
2022-11-21T01:22:33.848Z,15.90
2022-11-21T01:23:34.215Z,15.60
2022-11-21T01:24:34.459Z,15.50
2022-11-21T01:25:34.784Z,15.80
2022-11-21T01:26:35.090Z,15.70
2022-11-21T01:27:35.429Z,16.80
2022-11-21T01:28:35.726Z,17.10
2022-11-21T01:29:36.038Z,16.60
2022-11-21T01:30:36.304Z,16.60
2022-11-21T01:31:36.602Z,17.10
2022-11-21T01:32:36.916Z,17.20
2022-11-21T01:33:37.225Z,17.30
2022-11-21T01:34:37.607Z,16.50
2022-11-21T01:35:37.824Z,16.50
2022-11-21T01:36:38.151Z,16.10
2022-11-21T01:37:38.475Z,16.40
2022-11-21T01:38:38.801Z,15.80
2022-11-21T01:39:39.158Z,15.40
2022-11-21T01:40:39.597Z,15.20
2022-11-21T01:41:39.751Z,15.80
2022-11-21T01:42:40.084Z,16.90
2022-11-21T01:43:40.377Z,15.70
2022-11-21T01:44:40.695Z,16.60
2022-11-21T01:45:41.075Z,16.80
2022-11-21T01:46:41.335Z,15.70
2022-11-21T01:47:41.643Z,15.50
2022-11-21T01:48:41.952Z,15.70
2022-11-21T01:49:42.259Z,16.00
2022-11-21T01:50:42.605Z,15.50
2022-11-21T01:51:42.934Z,15.80
2022-11-21T01:52:43.251Z,15.00
2022-11-21T01:53:43.527Z,14.80
2022-11-21T01:54:43.843Z,15.20
2022-11-21T01:55:44.163Z,15.30
2022-11-21T01:56:45.446Z,15.20
2022-11-21T01:57:44.829Z,14.60
2022-11-21T01:58:45.130Z,14.90
2022-11-21T01:59:45.465Z,15.10
2022-11-21T02:00:45.846Z,15.20
2022-11-21T02:01:46.194Z,14.70
2022-11-21T02:02:46.435Z,14.80
2022-11-21T02:03:46.746Z,14.60
2022-11-21T02:04:47.050Z,14.80
2022-11-21T02:05:47.413Z,14.60
2022-11-21T02:06:47.713Z,14.80
2022-11-21T02:07:47.966Z,15.50
2022-11-21T02:08:48.288Z,15.20
2022-11-21T02:09:48.572Z,14.50
2022-11-21T02:10:48.893Z,14.90
2022-11-21T02:11:49.226Z,15.70
2022-11-21T02:12:49.529Z,15.20
2022-11-21T02:13:49.824Z,15.80
2022-11-21T02:14:50.272Z,16.20
2022-11-21T02:15:50.459Z,15.20
2022-11-21T02:16:50.790Z,15.20
2022-11-21T02:17:51.093Z,14.40
2022-11-21T02:18:51.413Z,15.80
2022-11-21T02:19:51.853Z,16.20
2022-11-21T02:20:52.031Z,15.20
2022-11-21T02:21:52.332Z,15.60
2022-11-21T02:22:52.645Z,16.00
2022-11-21T02:23:56.408Z,15.80
2022-11-21T02:24:53.423Z,16.00
2022-11-21T02:25:53.558Z,15.50
2022-11-21T02:26:53.955Z,16.00
2022-11-21T02:27:54.295Z,16.60
2022-11-21T02:28:54.458Z,16.10
2022-11-21T02:29:54.812Z,15.60
2022-11-21T02:30:55.076Z,15.60
2022-11-21T02:31:55.332Z,16.50
2022-11-21T02:32:55.615Z,15.70
2022-11-21T02:33:55.894Z,15.90
2022-11-21T02:34:56.368Z,15.70
2022-11-21T02:35:56.488Z,15.10
2022-11-21T02:36:56.739Z,15.00
2022-11-21T02:37:57.029Z,16.20
2022-11-21T02:38:57.319Z,15.10
2022-11-21T02:39:57.605Z,15.50
2022-11-21T02:40:58.037Z,15.00
2022-11-21T02:41:58.162Z,15.90
2022-11-21T02:42:58.476Z,15.30
2022-11-21T02:43:58.730Z,15.30
2022-11-21T02:44:59.018Z,15.20
2022-11-21T02:45:59.402Z,14.80
2022-11-21T02:46:59.582Z,15.20
2022-11-21T02:48:03.934Z,14.90
2022-11-21T02:49:00.169Z,15.00
2022-11-21T02:50:00.450Z,15.60
2022-11-21T02:51:00.755Z,15.10
2022-11-21T02:52:01.079Z,15.30
2022-11-21T02:53:01.303Z,15.10
2022-11-21T02:54:01.581Z,14.40
2022-11-21T02:55:01.880Z,14.90
2022-11-21T02:56:02.163Z,14.50
2022-11-21T02:57:02.495Z,15.00
2022-11-21T02:58:05.251Z,15.20
2022-11-21T02:59:03.048Z,14.60
2022-11-21T03:00:03.371Z,14.80
2022-11-21T03:01:03.672Z,15.10
2022-11-21T03:02:03.910Z,14.60
2022-11-21T03:03:04.203Z,14.70
2022-11-21T03:04:04.490Z,14.70
2022-11-21T03:05:04.867Z,14.10
2022-11-21T03:06:05.089Z,14.30
2022-11-21T03:07:05.418Z,15.10
2022-11-21T03:08:05.662Z,14.30
2022-11-21T03:09:05.958Z,14.90
2022-11-21T03:10:06.295Z,14.60
2022-11-21T03:11:06.561Z,15.10
2022-11-21T03:12:06.914Z,14.50
2022-11-21T03:13:07.203Z,15.10
2022-11-21T03:14:07.454Z,15.30
2022-11-21T03:15:07.752Z,15.30
2022-11-21T03:16:08.045Z,15.00
2022-11-21T03:17:08.377Z,15.00
2022-11-21T03:18:08.673Z,15.90
2022-11-21T03:19:09.006Z,15.40
2022-11-21T03:20:09.329Z,16.40
2022-11-21T03:21:09.658Z,16.20
2022-11-21T03:22:10.031Z,15.50
2022-11-21T03:23:10.312Z,15.90
2022-11-21T03:24:10.640Z,16.40
2022-11-21T03:25:10.963Z,15.80
2022-11-21T03:26:11.303Z,15.20
2022-11-21T03:27:11.774Z,16.10
2022-11-21T03:28:11.976Z,15.70
2022-11-21T03:29:12.282Z,15.90
2022-11-21T03:30:12.621Z,14.90
2022-11-21T03:31:12.937Z,15.20
2022-11-21T03:32:13.322Z,15.20
2022-11-21T03:33:13.582Z,15.20
2022-11-21T03:34:13.904Z,15.40
2022-11-21T03:35:14.222Z,15.90
2022-11-21T03:36:14.536Z,15.40
2022-11-21T03:37:14.871Z,15.10
2022-11-21T03:38:15.171Z,15.40
2022-11-21T03:39:15.512Z,15.70
2022-11-21T03:40:15.791Z,15.50
2022-11-21T03:41:16.122Z,15.20
2022-11-21T03:42:16.427Z,15.50
2022-11-21T03:43:16.773Z,15.40
2022-11-21T03:44:17.106Z,15.70
2022-11-21T03:45:17.389Z,15.00
2022-11-21T03:46:17.711Z,14.90
2022-11-21T03:47:18.036Z,15.00
2022-11-21T03:48:18.328Z,14.80
2022-11-21T03:49:18.652Z,14.50
2022-11-21T03:50:18.932Z,15.10
2022-11-21T03:51:19.237Z,14.60
2022-11-21T03:52:19.609Z,14.00
2022-11-21T03:53:19.875Z,14.10
2022-11-21T03:54:20.170Z,14.50
2022-11-21T03:55:20.467Z,14.70
2022-11-21T03:56:20.766Z,13.80
2022-11-21T03:57:21.097Z,14.80
2022-11-21T03:58:21.422Z,13.80
2022-11-21T03:59:21.652Z,13.80
2022-11-21T04:00:21.960Z,14.00
2022-11-21T04:01:22.310Z,13.90
2022-11-21T04:02:22.549Z,13.70
2022-11-21T04:03:22.814Z,13.50
2022-11-21T04:04:23.187Z,14.10
2022-11-21T04:05:23.382Z,14.10
2022-11-21T04:06:23.670Z,14.00
2022-11-21T04:07:23.989Z,13.60
2022-11-21T04:08:24.250Z,13.90
2022-11-21T04:09:24.660Z,13.70
2022-11-21T04:10:24.833Z,14.50
2022-11-21T04:11:25.143Z,14.40
2022-11-21T04:12:25.424Z,14.60
2022-11-21T04:13:25.749Z,14.50
2022-11-21T04:14:26.435Z,14.30
2022-11-21T04:15:26.316Z,14.00
2022-11-21T04:16:26.611Z,13.70
2022-11-21T04:17:26.901Z,14.60
2022-11-21T04:18:27.201Z,14.20
2022-11-21T04:19:27.602Z,14.40
2022-11-21T04:20:27.809Z,14.10
2022-11-21T04:21:28.108Z,14.60
2022-11-21T04:22:28.411Z,14.50
2022-11-21T04:23:28.727Z,14.50
2022-11-21T04:24:29.434Z,14.30
2022-11-21T04:25:29.334Z,14.10
2022-11-21T04:26:29.649Z,14.60
2022-11-21T04:27:29.954Z,14.50
2022-11-21T04:28:30.291Z,14.40
2022-11-21T04:29:31.312Z,14.70
2022-11-21T04:30:30.898Z,14.50
2022-11-21T04:31:31.212Z,14.70
2022-11-21T04:32:31.528Z,14.90
2022-11-21T04:33:31.837Z,15.10
2022-11-21T04:34:32.179Z,14.90
2022-11-21T04:35:32.442Z,14.90
2022-11-21T04:36:32.778Z,14.50
2022-11-21T04:37:33.053Z,15.00
2022-11-21T04:38:33.348Z,15.30
2022-11-21T04:39:33.701Z,15.20
2022-11-21T04:40:33.969Z,14.90
2022-11-21T04:41:34.403Z,14.60
2022-11-21T04:42:34.606Z,14.90
2022-11-21T04:43:34.953Z,15.00
2022-11-21T04:44:35.257Z,15.10
2022-11-21T04:45:35.580Z,14.70
2022-11-21T04:46:35.908Z,14.70
2022-11-21T04:47:36.311Z,15.00
2022-11-21T04:48:36.484Z,14.90
2022-11-21T04:49:36.793Z,14.80
2022-11-21T04:50:37.104Z,15.00
2022-11-21T04:51:37.407Z,14.70
2022-11-21T04:52:37.859Z,15.00
2022-11-21T04:53:42.689Z,15.00
2022-11-21T04:54:38.327Z,15.40
2022-11-21T04:55:38.629Z,14.40
2022-11-21T04:56:38.924Z,14.90
2022-11-21T04:57:39.306Z,14.90
2022-11-21T04:58:39.557Z,14.80
2022-11-21T04:59:39.836Z,15.50
2022-11-21T05:00:40.135Z,14.90
2022-11-21T05:01:40.503Z,14.70
2022-11-21T05:02:40.791Z,15.00
2022-11-21T05:03:41.083Z,14.70
2022-11-21T05:04:41.400Z,15.00
2022-11-21T05:05:41.699Z,15.10
2022-11-21T05:06:42.072Z,15.00
2022-11-21T05:07:42.340Z,15.60
2022-11-21T05:08:42.626Z,15.00
2022-11-21T05:09:42.922Z,14.40
2022-11-21T05:10:43.223Z,15.30
2022-11-21T05:11:43.592Z,15.30
2022-11-21T05:12:43.842Z,15.10
2022-11-21T05:13:44.187Z,15.10
2022-11-21T05:14:44.477Z,15.10
2022-11-21T05:15:44.798Z,14.70
2022-11-21T05:16:45.167Z,14.70
2022-11-21T05:17:45.413Z,15.20
2022-11-21T05:18:45.717Z,14.70
2022-11-21T05:19:46.022Z,14.70
2022-11-21T05:20:46.325Z,15.20
2022-11-21T05:21:46.664Z,14.60
2022-11-21T05:22:46.943Z,14.70
2022-11-21T05:23:47.303Z,14.70
2022-11-21T05:24:47.583Z,15.00
2022-11-21T05:25:47.890Z,15.30
2022-11-21T05:26:48.315Z,15.30
2022-11-21T05:27:48.518Z,14.70
2022-11-21T05:28:48.870Z,15.00
2022-11-21T05:29:49.131Z,14.70
2022-11-21T05:30:49.460Z,15.40
2022-11-21T05:31:49.783Z,16.50
2022-11-21T05:32:50.058Z,15.50
2022-11-21T05:33:50.354Z,16.10
2022-11-21T05:34:50.666Z,15.20
2022-11-21T05:35:51.061Z,15.50
2022-11-21T05:36:51.284Z,15.90
2022-11-21T05:37:51.582Z,15.90
2022-11-21T05:38:51.872Z,15.50
2022-11-21T05:39:52.192Z,15.60
2022-11-21T05:40:52.615Z,15.80
2022-11-21T05:41:52.814Z,15.00
2022-11-21T05:42:53.089Z,15.50
2022-11-21T05:43:53.494Z,14.80
2022-11-21T05:44:53.688Z,16.30
2022-11-21T05:45:54.003Z,15.40
2022-11-21T05:46:54.285Z,15.50
2022-11-21T05:47:54.577Z,14.90
2022-11-21T05:48:54.941Z,15.20
2022-11-21T05:49:55.193Z,15.90
2022-11-21T05:50:55.477Z,15.30
2022-11-21T05:51:55.796Z,15.40
2022-11-21T05:52:56.112Z,16.00
2022-11-21T05:53:56.458Z,15.70
2022-11-21T05:54:56.716Z,16.20
2022-11-21T05:55:57.082Z,16.00
2022-11-21T05:56:57.341Z,15.50
2022-11-21T05:57:57.650Z,15.90
2022-11-21T05:58:57.977Z,15.90
2022-11-21T05:59:58.244Z,16.40
2022-11-21T06:01:00.123Z,16.30
2022-11-21T06:01:58.835Z,16.20
2022-11-21T06:02:59.186Z,16.50
2022-11-21T06:03:59.437Z,16.50
2022-11-21T06:04:59.746Z,16.00
2022-11-21T06:06:00.100Z,15.80
2022-11-21T06:07:00.534Z,16.60
2022-11-21T06:08:00.681Z,16.10
2022-11-21T06:09:01.006Z,16.40
2022-11-21T06:10:01.318Z,16.30
2022-11-21T06:11:01.626Z,16.60
2022-11-21T06:12:02.072Z,16.40
2022-11-21T06:13:02.252Z,16.00
2022-11-21T06:14:02.585Z,15.60
2022-11-21T06:15:03.883Z,16.30
2022-11-21T06:16:03.172Z,17.10
2022-11-21T06:17:03.499Z,16.30
2022-11-21T06:18:03.787Z,16.50
2022-11-21T06:19:04.142Z,16.20
2022-11-21T06:20:04.422Z,17.10
2022-11-21T06:21:05.876Z,16.00
2022-11-21T06:22:05.077Z,16.40
2022-11-21T06:23:05.378Z,15.80
2022-11-21T06:24:07.850Z,15.90
2022-11-21T06:25:06.206Z,16.40
2022-11-21T06:26:06.324Z,16.00
2022-11-21T06:27:06.626Z,17.00
2022-11-21T06:28:06.919Z,15.80
2022-11-21T06:29:07.277Z,16.00
2022-11-21T06:30:07.504Z,15.40
2022-11-21T06:31:07.805Z,15.40
2022-11-21T06:32:08.097Z,15.80
2022-11-21T06:33:08.387Z,15.60
2022-11-21T06:34:08.727Z,15.90
2022-11-21T06:35:08.995Z,15.80
2022-11-21T06:36:09.275Z,15.60
2022-11-21T06:37:09.581Z,15.30
2022-11-21T06:38:09.866Z,15.40
2022-11-21T06:39:10.241Z,16.50
2022-11-21T06:40:10.463Z,15.90
2022-11-21T06:41:10.758Z,16.30
2022-11-21T06:42:11.062Z,15.90
2022-11-21T06:43:11.362Z,16.20
2022-11-21T06:44:11.700Z,16.70
2022-11-21T06:45:11.967Z,16.70
2022-11-21T06:46:12.232Z,16.30
2022-11-21T06:47:12.544Z,16.20
2022-11-21T06:48:12.805Z,16.90
2022-11-21T06:49:13.155Z,16.60
2022-11-21T06:50:13.417Z,15.60
2022-11-21T06:51:13.712Z,15.60
2022-11-21T06:52:14.021Z,16.50
2022-11-21T06:53:14.328Z,15.70
2022-11-21T06:54:28.470Z,16.30
2022-11-21T06:55:14.943Z,16.30
2022-11-21T06:56:15.290Z,15.80
2022-11-21T06:57:15.597Z,15.00
2022-11-21T06:58:15.885Z,15.30
2022-11-21T06:59:16.274Z,15.80
2022-11-21T07:00:16.521Z,16.00
2022-11-21T07:01:16.842Z,15.40
2022-11-21T07:02:17.085Z,15.50
2022-11-21T07:03:17.395Z,16.10
2022-11-21T07:04:17.701Z,16.70
2022-11-21T07:05:18.055Z,15.70
2022-11-21T07:06:18.348Z,16.60
2022-11-21T07:07:18.747Z,16.00
2022-11-21T07:08:18.965Z,16.40
2022-11-21T07:09:33.261Z,16.90
2022-11-21T07:10:19.569Z,16.00
2022-11-21T07:11:26.993Z,16.30
2022-11-21T07:12:20.189Z,16.20
2022-11-21T07:13:20.441Z,16.40
2022-11-21T07:14:20.762Z,16.40
2022-11-21T07:15:21.024Z,16.00
2022-11-21T07:16:21.386Z,16.30
2022-11-21T07:17:21.613Z,16.10
2022-11-21T07:18:21.896Z,16.60
2022-11-21T07:19:22.197Z,17.40
2022-11-21T07:20:22.518Z,16.60
2022-11-21T07:21:22.834Z,16.60
2022-11-21T07:22:23.093Z,17.10
2022-11-21T07:23:23.424Z,16.60
2022-11-21T07:24:23.699Z,16.20
2022-11-21T07:25:23.990Z,16.70
2022-11-21T07:26:24.315Z,17.60
2022-11-21T07:27:24.616Z,17.70
2022-11-21T07:28:24.884Z,17.00
2022-11-21T07:29:25.551Z,17.30
2022-11-21T07:30:25.479Z,16.70
2022-11-21T07:31:25.790Z,17.90
2022-11-21T07:32:26.048Z,17.40
2022-11-21T07:33:26.337Z,18.00
2022-11-21T07:34:26.658Z,18.00
2022-11-21T07:35:26.924Z,17.50
2022-11-21T07:36:27.217Z,17.90
2022-11-21T07:37:27.517Z,17.90
2022-11-21T07:38:27.814Z,18.60
2022-11-21T07:39:28.687Z,18.60
2022-11-21T07:40:28.532Z,18.40
2022-11-21T07:41:28.714Z,18.70
2022-11-21T07:42:29.010Z,17.80
2022-11-21T07:43:29.312Z,18.30
2022-11-21T07:44:29.765Z,17.80
2022-11-21T07:45:29.896Z,17.50
2022-11-21T07:46:30.191Z,18.40
2022-11-21T07:47:30.473Z,17.90
2022-11-21T07:48:30.770Z,18.20
2022-11-21T07:49:31.483Z,17.10
2022-11-21T07:50:31.323Z,17.50
2022-11-21T07:51:31.617Z,17.10
2022-11-21T07:52:31.886Z,17.50
2022-11-21T07:53:32.180Z,17.60
2022-11-21T07:54:32.501Z,17.50
2022-11-21T07:55:37.704Z,17.60
2022-11-21T07:56:33.107Z,17.40
2022-11-21T07:57:33.308Z,17.30
2022-11-21T07:58:33.596Z,17.70
2022-11-21T07:59:33.937Z,18.00
2022-11-21T08:00:34.199Z,17.50
2022-11-21T08:01:34.504Z,16.60
2022-11-21T08:02:34.714Z,16.40
2022-11-21T08:03:35.002Z,17.10
2022-11-21T08:04:35.263Z,17.60
2022-11-21T08:05:35.605Z,17.90
2022-11-21T08:06:35.818Z,17.40
2022-11-21T08:07:36.197Z,16.80
2022-11-21T08:08:36.419Z,16.50
2022-11-21T08:09:39.775Z,17.70
2022-11-21T08:10:36.995Z,16.80
2022-11-21T08:11:37.227Z,17.40
2022-11-21T08:12:37.505Z,17.40
2022-11-21T08:13:37.769Z,17.10
2022-11-21T08:14:38.051Z,17.60
2022-11-21T08:15:38.317Z,17.40
2022-11-21T08:16:38.547Z,17.20
2022-11-21T08:17:38.801Z,16.90
2022-11-21T08:18:39.070Z,16.80
2022-11-21T08:19:39.346Z,17.50
2022-11-21T08:20:39.702Z,16.90
2022-11-21T08:21:39.894Z,17.20
2022-11-21T08:22:40.172Z,17.10
2022-11-21T08:23:40.457Z,17.10
2022-11-21T08:24:40.743Z,16.90
2022-11-21T08:25:41.056Z,17.60
2022-11-21T08:26:41.311Z,17.80
2022-11-21T08:27:41.608Z,16.50
2022-11-21T08:28:41.959Z,16.50
2022-11-21T08:29:42.265Z,17.70
2022-11-21T08:30:42.546Z,16.70
2022-11-21T08:31:42.859Z,17.00
2022-11-21T08:32:43.312Z,17.50
2022-11-21T08:33:43.505Z,17.10
2022-11-21T08:34:43.786Z,16.70
2022-11-21T08:35:44.092Z,16.70
2022-11-21T08:36:44.440Z,16.20
2022-11-21T08:37:44.750Z,16.10
2022-11-21T08:38:45.034Z,16.70
2022-11-21T08:39:45.356Z,16.20
2022-11-21T08:40:45.705Z,17.60
2022-11-21T08:41:45.994Z,17.40
2022-11-21T08:42:46.307Z,16.80
2022-11-21T08:43:46.626Z,17.00
2022-11-21T08:44:46.963Z,17.00
2022-11-21T08:45:47.326Z,17.40
2022-11-21T08:46:47.570Z,17.40
2022-11-21T08:47:47.883Z,18.20
2022-11-21T08:48:48.192Z,17.50
2022-11-21T08:49:48.501Z,17.30
2022-11-21T08:50:48.934Z,17.70
2022-11-21T08:51:49.103Z,17.40
2022-11-21T08:52:49.407Z,17.70
2022-11-21T08:53:49.693Z,18.10
2022-11-21T08:54:50.001Z,17.90
2022-11-21T08:55:50.334Z,18.30
2022-11-21T08:56:50.615Z,18.50
2022-11-21T08:57:50.991Z,18.10
2022-11-21T08:58:51.251Z,18.10
2022-11-21T08:59:51.592Z,18.70
2022-11-21T09:00:51.932Z,18.10
2022-11-21T09:01:52.233Z,18.30
2022-11-21T09:02:52.553Z,17.70
2022-11-21T09:03:52.798Z,18.40
2022-11-21T09:04:53.112Z,18.10
2022-11-21T09:05:53.466Z,17.80
2022-11-21T09:06:53.752Z,17.90
2022-11-21T09:07:54.029Z,18.50
2022-11-21T09:08:54.328Z,18.10
2022-11-21T09:09:54.622Z,18.30
2022-11-21T09:10:54.965Z,18.50
2022-11-21T09:11:55.242Z,18.20
2022-11-21T09:12:55.501Z,19.30
2022-11-21T09:13:55.788Z,18.30
2022-11-21T09:14:56.102Z,18.20
2022-11-21T09:15:56.379Z,18.50
2022-11-21T09:17:00.788Z,17.80
2022-11-21T09:17:56.976Z,17.60
2022-11-21T09:18:57.301Z,18.10
2022-11-21T09:19:57.658Z,17.50
2022-11-21T09:20:59.064Z,17.80
2022-11-21T09:21:58.242Z,18.50
2022-11-21T09:22:58.554Z,18.30
2022-11-21T09:23:58.829Z,17.30
2022-11-21T09:24:59.138Z,17.50
2022-11-21T09:25:59.438Z,17.90
2022-11-21T09:26:59.722Z,17.70
2022-11-21T09:28:00.052Z,17.50
2022-11-21T09:29:00.562Z,17.10
2022-11-21T09:30:00.629Z,17.40
2022-11-21T09:31:00.906Z,18.30
2022-11-21T09:32:01.200Z,17.50
2022-11-21T09:33:01.515Z,16.80
2022-11-21T09:34:01.844Z,17.60
2022-11-21T09:35:02.096Z,17.20
2022-11-21T09:36:02.389Z,17.20
2022-11-21T09:37:02.696Z,17.00
2022-11-21T09:38:03.003Z,16.90
2022-11-21T09:39:03.429Z,16.90
2022-11-21T09:40:03.603Z,16.50
2022-11-21T09:41:03.898Z,16.80
2022-11-21T09:42:04.207Z,18.10
2022-11-21T09:43:04.521Z,16.90
2022-11-21T09:44:04.864Z,17.70
2022-11-21T09:45:05.200Z,17.30
2022-11-21T09:46:05.493Z,17.00
2022-11-21T09:47:05.729Z,17.10
2022-11-21T09:48:06.018Z,16.90
2022-11-21T09:49:06.342Z,17.40
2022-11-21T09:50:06.672Z,17.10
2022-11-21T09:51:06.940Z,17.30
2022-11-21T09:52:07.195Z,16.90
2022-11-21T09:53:07.492Z,17.40
2022-11-21T09:54:07.796Z,16.90
2022-11-21T09:55:08.105Z,18.40
2022-11-21T09:56:08.494Z,18.50
2022-11-21T09:57:08.754Z,18.30
2022-11-21T09:58:09.042Z,17.90
2022-11-21T09:59:09.359Z,17.30
2022-11-21T10:00:09.692Z,17.10
2022-11-21T10:01:10.100Z,17.60
2022-11-21T10:02:10.356Z,16.80
2022-11-21T10:03:10.633Z,16.90
2022-11-21T10:04:10.955Z,16.70
2022-11-21T10:05:11.259Z,17.50
2022-11-21T10:06:11.537Z,17.50
2022-11-21T10:07:12.113Z,17.40
2022-11-21T10:08:12.099Z,17.20
2022-11-21T10:09:12.365Z,18.40
2022-11-21T10:10:12.642Z,18.00
2022-11-21T10:11:19.444Z,17.30
2022-11-21T10:12:13.228Z,17.60
2022-11-21T10:13:13.471Z,18.20
2022-11-21T10:14:13.761Z,17.40
2022-11-21T10:15:14.083Z,18.50
2022-11-21T10:16:14.346Z,18.30
2022-11-21T10:17:14.661Z,18.20
2022-11-21T10:18:14.963Z,18.20
2022-11-21T10:19:15.211Z,18.80
2022-11-21T10:20:15.478Z,19.20
2022-11-21T10:21:15.873Z,18.10
2022-11-21T10:22:16.055Z,18.60
2022-11-21T10:23:16.425Z,19.70
2022-11-21T10:24:16.596Z,19.30
2022-11-21T10:25:16.880Z,18.80
2022-11-21T10:26:17.151Z,19.30
2022-11-21T10:27:17.426Z,17.30
2022-11-21T10:28:17.725Z,19.60
2022-11-21T10:29:17.967Z,18.20
2022-11-21T10:30:18.374Z,18.50
2022-11-21T10:31:18.581Z,18.40
2022-11-21T10:32:18.782Z,19.50
2022-11-21T10:33:19.085Z,18.90
2022-11-21T10:34:19.352Z,18.80
2022-11-21T10:35:19.587Z,18.60
2022-11-21T10:36:19.855Z,18.30
2022-11-21T10:37:20.117Z,19.80
2022-11-21T10:38:20.413Z,19.40
2022-11-21T10:39:20.695Z,18.40
2022-11-21T10:40:20.968Z,17.90
2022-11-21T10:41:21.254Z,17.30
2022-11-21T10:42:24.526Z,17.30
2022-11-21T10:43:21.856Z,16.30
2022-11-21T10:44:22.177Z,16.00
2022-11-21T10:45:22.452Z,16.80
2022-11-21T10:46:22.713Z,16.80
2022-11-21T10:47:23.013Z,17.20
2022-11-21T10:48:23.303Z,16.70
2022-11-21T10:49:23.615Z,17.40
2022-11-21T10:50:23.882Z,17.20
2022-11-21T10:51:24.167Z,18.60
2022-11-21T10:52:24.440Z,18.00
2022-11-21T10:53:24.722Z,16.80
2022-11-21T10:54:25.151Z,17.50
2022-11-21T10:55:25.327Z,17.00
2022-11-21T10:56:25.593Z,17.50
2022-11-21T10:57:25.890Z,17.40
2022-11-21T10:58:26.178Z,17.60
2022-11-21T10:59:30.517Z,18.10
2022-11-21T11:00:26.818Z,17.80
2022-11-21T11:01:27.201Z,17.40
2022-11-21T11:02:27.335Z,17.40
2022-11-21T11:03:27.635Z,18.50
2022-11-21T11:04:29.667Z,17.60
2022-11-21T11:05:28.226Z,17.20
2022-11-21T11:06:28.523Z,19.00
2022-11-21T11:07:28.909Z,18.40
2022-11-21T11:08:29.111Z,18.40
2022-11-21T11:09:29.439Z,19.00
2022-11-21T11:10:29.691Z,18.20
2022-11-21T11:11:29.984Z,17.70
2022-11-21T11:12:30.296Z,19.10
2022-11-21T11:13:47.244Z,18.80
2022-11-21T11:14:30.955Z,19.40
2022-11-21T11:15:31.198Z,18.70
2022-11-21T11:16:31.445Z,19.60
2022-11-21T11:17:31.738Z,19.00
2022-11-21T11:18:32.073Z,18.80
2022-11-21T11:19:38.686Z,19.20
2022-11-21T11:20:32.623Z,19.90
2022-11-21T11:21:32.845Z,20.70
2022-11-21T11:22:33.137Z,19.40
